Currituck — AEFR — position and weather

sailwx.info

Track history (hours):
 
Tides and Currents Weather Stations Pressure Air Temp Water Temp Dewpoint Dewpoint Depression Visibility Wind Speed Wind Dir Waves Ship Positions

Currituck

Last reported at 2016-Jul-23 14:33 UTC. Time now 2016-Jul-23 15:04 UTC.
Position N 36°50' W 075°58'.

Length 45 m; draft 3 m.

Type: Dredging. MMSI: 369970446.

Date/timePositionNaut miles runAvg speedWind from/ knotsBaromVisibWave heightAir tempDewpointWater temp
2016-Jul-23 14:33N 36°50' W 075°58'0 0.0
2016-Jul-23 13:33N 36°50' W 075°58'0 0.0
2016-Jul-23 12:33N 36°50' W 075°58'0 0.0
2016-Jul-23 11:33N 36°50' W 075°58'0 0.1
2016-Jul-23 10:33N 36°50' W 075°58'0 0.0
2016-Jul-23 00:30N 36°50' W 075°58'0 0.0
2016-Jul-22 23:31N 36°50' W 075°58'0 0.0
2016-Jul-22 22:19N 36°50' W 075°58'1 0.9
2016-Jul-22 21:33N 36°50' W 075°58'1 0.7
2016-Jul-22 20:33N 36°50' W 075°58'0 0.0
2016-Jul-22 19:33N 36°50' W 075°58'0 0.1
2016-Jul-22 18:33N 36°50' W 075°58'1 0.6
2016-Jul-22 17:30N 36°50' W 075°58'1 0.6
2016-Jul-22 16:33N 36°50' W 075°58'0 0.0
2016-Jul-22 15:33N 36°50' W 075°58'0 0.0
2016-Jul-22 14:33N 36°50' W 075°58'0 0.1
2016-Jul-22 13:33N 36°50' W 075°58'0 0.1
2016-Jul-22 12:33N 36°50' W 075°58'0 0.0
2016-Jul-22 11:33N 36°50' W 075°58'0 0.1
2016-Jul-22 10:33N 36°50' W 075°58'0 0.0
2016-Jul-22 07:29N 36°50' W 075°58'0 0.0
2016-Jul-22 05:33N 36°50' W 075°58'0 0.0
2016-Jul-22 04:30N 36°50' W 075°58'0 0.0
2016-Jul-22 02:33N 36°50' W 075°58'0 0.0
2016-Jul-22 01:06N 36°50' W 075°58'0 0.0
2016-Jul-22 00:21N 36°50' W 075°58'0 0.0
2016-Jul-21 23:33N 36°50' W 075°58'0 0.3
2016-Jul-21 22:33N 36°50' W 075°58'81 8.1
2016-Jul-21 12:32N 38°02' W 075°11'10 8.5
2016-Jul-21 11:18N 38°11' W 075°05'8 0.2
2016-Jul-19 11:08N 38°19' W 075°04'1 0.0
2016-Jul-18 06:16N 38°20' W 075°05'1 0.1
2016-Jul-17 11:18N 38°19' W 075°04'17 1.0
2016-Jul-16 17:31N 38°34' W 074°54'7 7.5
2016-Jul-16 16:33N 38°41' W 074°50'8 7.7
2016-Jul-16 15:29N 38°48' W 074°45'23 7.8
2016-Jul-16 12:27N 39°09' W 074°31'7 7.9
2016-Jul-16 11:34N 39°15' W 074°27'8 6.4
2016-Jul-16 10:23N 39°22' W 074°25'1 0.8
2016-Jul-16 09:33N 39°23' W 074°25'0 0.0
2016-Jul-16 08:33N 39°23' W 074°25'0 0.0
2016-Jul-16 07:34N 39°23' W 074°25'0 0.0
2016-Jul-16 06:33N 39°23' W 074°25'0 0.0
2016-Jul-16 04:34N 39°23' W 074°25'0 0.0
2016-Jul-16 03:33N 39°23' W 074°25'0 0.0
2016-Jul-16 02:34N 39°23' W 074°25'0 0.0
2016-Jul-16 01:33N 39°23' W 074°25'0 0.0
2016-Jul-15 11:19N 39°23' W 074°25'0 0.0
2016-Jul-15 10:33N 39°23' W 074°25'0 0.0
2016-Jul-15 09:33N 39°23' W 074°25'0 0.0
2016-Jul-15 08:33N 39°23' W 074°25'0 0.0
2016-Jul-15 07:33N 39°23' W 074°25'0 0.0
2016-Jul-15 06:31N 39°23' W 074°25'0 0.0
2016-Jul-15 05:23N 39°23' W 074°25'0 0.0
2016-Jul-14 23:31N 39°23' W 074°25'0 0.3
2016-Jul-14 22:33N 39°23' W 074°25'6 6.0
2016-Jul-14 21:33N 39°24' W 074°17'7 7.2
2016-Jul-14 20:33N 39°30' W 074°13'7 7.3
2016-Jul-14 19:33N 39°37' W 074°09'7 6.6
2016-Jul-14 18:33N 39°43' W 074°06'8 8.1
2016-Jul-14 17:33N 39°51' W 074°03'8 8.1
2016-Jul-14 16:33N 39°59' W 074°02'8 8.0
2016-Jul-14 15:30N 40°07' W 074°01'4 1.2
2016-Jul-14 12:04N 40°11' W 074°01'0 0.0
2016-Jul-13 17:09N 40°11' W 074°01'  
Track history (hours):
 
Tides and Currents Weather Stations Pressure Air Temp Water Temp Dewpoint Dewpoint Depression Visibility Wind Speed Wind Dir Waves Ship Positions

Currituck

Last reported at 2016-Jul-23 14:33 UTC. Time now 2016-Jul-23 15:04 UTC.
Position N 36°50' W 075°58'.

Length 45 m; draft 3 m.

Type: Dredging. MMSI: 369970446.

Date/timePositionNaut miles runAvg speedWind from/ knotsBaromVisibWave heightAir tempDewpointWater temp
2016-Jul-23 14:33N 36°50' W 075°58'0 0.0
2016-Jul-23 13:33N 36°50' W 075°58'0 0.0
2016-Jul-23 12:33N 36°50' W 075°58'0 0.0
2016-Jul-23 11:33N 36°50' W 075°58'0 0.1
2016-Jul-23 10:33N 36°50' W 075°58'0 0.0
2016-Jul-23 00:30N 36°50' W 075°58'0 0.0
2016-Jul-22 23:31N 36°50' W 075°58'0 0.0
2016-Jul-22 22:19N 36°50' W 075°58'1 0.9
2016-Jul-22 21:33N 36°50' W 075°58'1 0.7
2016-Jul-22 20:33N 36°50' W 075°58'0 0.0
2016-Jul-22 19:33N 36°50' W 075°58'0 0.1
2016-Jul-22 18:33N 36°50' W 075°58'1 0.6
2016-Jul-22 17:30N 36°50' W 075°58'1 0.6
2016-Jul-22 16:33N 36°50' W 075°58'0 0.0
2016-Jul-22 15:33N 36°50' W 075°58'0 0.0
2016-Jul-22 14:33N 36°50' W 075°58'0 0.1
2016-Jul-22 13:33N 36°50' W 075°58'0 0.1
2016-Jul-22 12:33N 36°50' W 075°58'0 0.0
2016-Jul-22 11:33N 36°50' W 075°58'0 0.1
2016-Jul-22 10:33N 36°50' W 075°58'0 0.0
2016-Jul-22 07:29N 36°50' W 075°58'0 0.0
2016-Jul-22 05:33N 36°50' W 075°58'0 0.0
2016-Jul-22 04:30N 36°50' W 075°58'0 0.0
2016-Jul-22 02:33N 36°50' W 075°58'0 0.0
2016-Jul-22 01:06N 36°50' W 075°58'0 0.0
2016-Jul-22 00:21N 36°50' W 075°58'0 0.0
2016-Jul-21 23:33N 36°50' W 075°58'0 0.3
2016-Jul-21 22:33N 36°50' W 075°58'81 8.1
2016-Jul-21 12:32N 38°02' W 075°11'10 8.5
2016-Jul-21 11:18N 38°11' W 075°05'8 0.2
2016-Jul-19 11:08N 38°19' W 075°04'1 0.0
2016-Jul-18 06:16N 38°20' W 075°05'1 0.1
2016-Jul-17 11:18N 38°19' W 075°04'17 1.0
2016-Jul-16 17:31N 38°34' W 074°54'7 7.5
2016-Jul-16 16:33N 38°41' W 074°50'8 7.7
2016-Jul-16 15:29N 38°48' W 074°45'23 7.8
2016-Jul-16 12:27N 39°09' W 074°31'7 7.9
2016-Jul-16 11:34N 39°15' W 074°27'8 6.4
2016-Jul-16 10:23N 39°22' W 074°25'1 0.8
2016-Jul-16 09:33N 39°23' W 074°25'0 0.0
2016-Jul-16 08:33N 39°23' W 074°25'0 0.0
2016-Jul-16 07:34N 39°23' W 074°25'0 0.0
2016-Jul-16 06:33N 39°23' W 074°25'0 0.0
2016-Jul-16 04:34N 39°23' W 074°25'0 0.0
2016-Jul-16 03:33N 39°23' W 074°25'0 0.0
2016-Jul-16 02:34N 39°23' W 074°25'0 0.0
2016-Jul-16 01:33N 39°23' W 074°25'0 0.0
2016-Jul-15 11:19N 39°23' W 074°25'0 0.0
2016-Jul-15 10:33N 39°23' W 074°25'0 0.0
2016-Jul-15 09:33N 39°23' W 074°25'0 0.0
2016-Jul-15 08:33N 39°23' W 074°25'0 0.0
2016-Jul-15 07:33N 39°23' W 074°25'0 0.0
2016-Jul-15 06:31N 39°23' W 074°25'0 0.0
2016-Jul-15 05:23N 39°23' W 074°25'0 0.0
2016-Jul-14 23:31N 39°23' W 074°25'0 0.3
2016-Jul-14 22:33N 39°23' W 074°25'6 6.0
2016-Jul-14 21:33N 39°24' W 074°17'7 7.2
2016-Jul-14 20:33N 39°30' W 074°13'7 7.3
2016-Jul-14 19:33N 39°37' W 074°09'7 6.6
2016-Jul-14 18:33N 39°43' W 074°06'8 8.1
2016-Jul-14 17:33N 39°51' W 074°03'8 8.1
2016-Jul-14 16:33N 39°59' W 074°02'8 8.0
2016-Jul-14 15:30N 40°07' W 074°01'4 1.2
2016-Jul-14 12:04N 40°11' W 074°01'0 0.0
2016-Jul-13 17:09N 40°11' W 074°01'  

Dump ship's entire track history